createdAt,value
2019-03-09T00:00:43.439Z,7.10
2019-03-09T00:02:47.293Z,7.00
2019-03-09T00:04:51.272Z,7.00
2019-03-09T00:06:55.161Z,7.00
2019-03-09T00:08:59.024Z,6.90
2019-03-09T00:11:02.909Z,7.00
2019-03-09T00:13:06.806Z,6.90
2019-03-09T00:15:10.655Z,6.90
2019-03-09T00:17:14.947Z,6.90
2019-03-09T00:19:18.848Z,6.80
2019-03-09T00:21:22.774Z,7.00
2019-03-09T00:23:44.757Z,6.80
2019-03-09T00:26:06.894Z,6.80
2019-03-09T00:28:18.202Z,6.70
2019-03-09T00:30:34.942Z,6.90
2019-03-09T00:32:38.838Z,6.90
2019-03-09T00:34:42.699Z,6.70
2019-03-09T00:36:46.612Z,7.00
2019-03-09T00:38:50.693Z,6.80
2019-03-09T00:40:54.577Z,6.80
2019-03-09T00:42:58.457Z,6.70
2019-03-09T00:45:02.334Z,6.70
2019-03-09T00:47:06.242Z,6.90
2019-03-09T00:49:11.278Z,7.00
2019-03-09T00:51:15.492Z,6.90
2019-03-09T00:53:19.341Z,7.00
2019-03-09T00:55:23.228Z,7.00
2019-03-09T00:57:27.149Z,7.10
2019-03-09T00:59:30.970Z,7.10
2019-03-09T01:01:34.875Z,6.90
2019-03-09T01:03:38.786Z,7.10
2019-03-09T01:05:42.641Z,6.90
2019-03-09T01:07:46.541Z,6.80
2019-03-09T01:09:50.374Z,6.80
2019-03-09T01:11:54.290Z,6.80
2019-03-09T01:13:58.173Z,7.00
2019-03-09T01:16:01.998Z,7.00
2019-03-09T01:18:05.947Z,6.60
2019-03-09T01:20:12.622Z,6.60
2019-03-09T01:22:16.468Z,6.50
2019-03-09T01:24:20.348Z,6.60
2019-03-09T01:26:24.221Z,6.50
2019-03-09T01:28:28.111Z,6.70
2019-03-09T01:30:32.004Z,6.80
2019-03-09T01:32:35.923Z,6.90
2019-03-09T01:34:39.800Z,7.00
2019-03-09T01:36:43.666Z,6.70
2019-03-09T01:38:47.564Z,6.70
2019-03-09T01:40:51.431Z,6.70
2019-03-09T01:42:55.350Z,6.70
2019-03-09T01:44:59.194Z,6.80
2019-03-09T01:47:03.198Z,6.90
2019-03-09T01:49:07.047Z,6.90
2019-03-09T01:51:10.931Z,6.90
2019-03-09T01:53:14.806Z,6.70
2019-03-09T01:55:18.728Z,6.80
2019-03-09T01:57:22.617Z,6.60
2019-03-09T01:59:26.518Z,6.60
2019-03-09T02:01:30.352Z,6.70
2019-03-09T02:03:34.270Z,6.90
2019-03-09T02:05:38.132Z,7.00
2019-03-09T02:07:41.978Z,6.80
2019-03-09T02:09:45.868Z,6.90
2019-03-09T02:11:49.778Z,6.80
2019-03-09T02:13:53.688Z,6.70
2019-03-09T02:15:57.552Z,6.70
2019-03-09T02:18:01.460Z,6.90
2019-03-09T02:20:11.687Z,6.90
2019-03-09T02:22:15.524Z,6.90
2019-03-09T02:24:19.462Z,6.80
2019-03-09T02:26:23.303Z,6.80
2019-03-09T02:28:27.198Z,6.80
2019-03-09T02:30:31.078Z,6.90
2019-03-09T02:32:34.967Z,7.00
2019-03-09T02:34:38.865Z,6.90
2019-03-09T02:36:42.747Z,6.80
2019-03-09T02:38:49.148Z,6.80
2019-03-09T02:40:53.045Z,6.80
2019-03-09T02:42:56.910Z,6.80
2019-03-09T02:45:00.834Z,6.90
2019-03-09T02:47:04.718Z,6.90
2019-03-09T02:49:08.596Z,7.00
2019-03-09T02:51:12.537Z,7.00
2019-03-09T02:53:16.373Z,7.00
2019-03-09T02:55:20.224Z,7.00
2019-03-09T02:57:24.118Z,7.10
2019-03-09T02:59:28.022Z,7.00
2019-03-09T03:01:36.569Z,6.90
2019-03-09T03:03:40.880Z,7.00
2019-03-09T03:05:45.039Z,7.10
2019-03-09T03:07:49.361Z,7.00
2019-03-09T03:09:53.299Z,7.00
2019-03-09T03:11:57.177Z,7.00
2019-03-09T03:14:01.046Z,7.00
2019-03-09T03:16:04.937Z,7.00
2019-03-09T03:18:08.820Z,7.00
2019-03-09T03:20:12.697Z,7.10
2019-03-09T03:22:16.626Z,7.00
2019-03-09T03:24:20.491Z,7.10
2019-03-09T03:26:24.360Z,7.10
2019-03-09T03:28:28.259Z,7.10
2019-03-09T03:30:32.182Z,7.10
2019-03-09T03:32:36.739Z,7.20
2019-03-09T03:34:40.610Z,7.20
2019-03-09T03:36:44.450Z,7.20
2019-03-09T03:38:48.339Z,7.20
2019-03-09T03:40:52.229Z,7.20
2019-03-09T03:42:56.093Z,7.20
2019-03-09T03:44:59.935Z,7.20
2019-03-09T03:47:03.803Z,7.30
2019-03-09T03:49:07.734Z,7.30
2019-03-09T03:51:11.620Z,7.30
2019-03-09T03:53:15.457Z,7.30
2019-03-09T03:55:19.358Z,7.30
2019-03-09T03:57:24.250Z,7.30
2019-03-09T03:59:28.235Z,7.30
2019-03-09T04:01:32.141Z,7.30
2019-03-09T04:03:36.021Z,7.40
2019-03-09T04:05:40.307Z,7.40
2019-03-09T04:07:44.178Z,7.40
2019-03-09T04:09:48.243Z,7.30
2019-03-09T04:11:52.604Z,7.30
2019-03-09T04:13:56.540Z,7.30
2019-03-09T04:16:00.482Z,7.30
2019-03-09T04:18:04.321Z,7.20
2019-03-09T04:20:10.713Z,7.20
2019-03-09T04:22:14.702Z,7.20
2019-03-09T04:24:18.588Z,7.20
2019-03-09T04:26:22.586Z,7.20
2019-03-09T04:28:26.480Z,7.20
2019-03-09T04:30:30.398Z,7.20
2019-03-09T04:32:34.303Z,7.20
2019-03-09T04:34:38.194Z,7.20
2019-03-09T04:36:42.025Z,7.20
2019-03-09T04:38:45.930Z,7.30
2019-03-09T04:40:49.780Z,7.20
2019-03-09T04:42:53.702Z,7.30
2019-03-09T04:44:57.563Z,7.30
2019-03-09T04:47:01.469Z,7.30
2019-03-09T04:49:05.345Z,7.30
2019-03-09T04:51:09.218Z,7.30
2019-03-09T04:53:13.120Z,7.30
2019-03-09T04:55:16.986Z,7.40
2019-03-09T04:57:20.882Z,7.40
2019-03-09T04:59:24.793Z,7.50
2019-03-09T05:01:28.629Z,7.50
2019-03-09T05:03:32.557Z,7.40
2019-03-09T05:05:36.408Z,7.30
2019-03-09T05:07:48.953Z,7.40
2019-03-09T05:10:19.697Z,7.40
2019-03-09T05:12:23.575Z,7.40
2019-03-09T05:14:27.745Z,7.40
2019-03-09T05:16:31.649Z,7.30
2019-03-09T05:18:36.206Z,7.30
2019-03-09T05:20:40.068Z,7.40
2019-03-09T05:22:43.952Z,7.30
2019-03-09T05:24:47.822Z,7.30
2019-03-09T05:26:51.740Z,7.30
2019-03-09T05:28:55.621Z,7.30
2019-03-09T05:30:59.542Z,7.30
2019-03-09T05:33:03.446Z,7.30
2019-03-09T05:35:07.373Z,7.30
2019-03-09T05:37:11.271Z,7.30
2019-03-09T05:39:15.153Z,7.20
2019-03-09T05:41:19.065Z,7.10
2019-03-09T05:43:22.909Z,7.10
2019-03-09T05:45:26.806Z,7.00
2019-03-09T05:47:30.709Z,7.10
2019-03-09T05:49:34.629Z,7.00
2019-03-09T05:51:38.514Z,7.00
2019-03-09T05:53:42.372Z,7.00
2019-03-09T05:55:46.312Z,6.90
2019-03-09T05:57:50.361Z,6.90
2019-03-09T05:59:54.306Z,6.90
2019-03-09T06:01:58.231Z,7.00
2019-03-09T06:04:02.181Z,6.90
2019-03-09T06:06:06.903Z,6.90
2019-03-09T06:08:10.777Z,6.80
2019-03-09T06:10:14.666Z,6.80
2019-03-09T06:12:19.265Z,6.80
2019-03-09T06:14:23.250Z,6.80
2019-03-09T06:16:28.130Z,6.70
2019-03-09T06:18:32.725Z,6.70
2019-03-09T06:20:36.620Z,6.70
2019-03-09T06:22:41.274Z,6.70
2019-03-09T06:24:46.038Z,6.70
2019-03-09T06:26:50.287Z,6.70
2019-03-09T06:28:54.401Z,6.80
2019-03-09T06:30:59.459Z,6.70
2019-03-09T06:33:26.733Z,6.70
2019-03-09T06:35:31.760Z,6.70
2019-03-09T06:37:37.597Z,6.80
2019-03-09T06:39:42.280Z,6.80
2019-03-09T06:41:51.622Z,6.80
2019-03-09T06:43:56.442Z,6.80
2019-03-09T06:46:00.738Z,6.90
2019-03-09T06:48:05.272Z,6.90
2019-03-09T06:50:13.665Z,7.00
2019-03-09T06:52:17.529Z,7.00
2019-03-09T06:54:21.491Z,7.00
2019-03-09T06:56:25.846Z,7.00
2019-03-09T06:58:29.883Z,7.10
2019-03-09T07:00:36.873Z,7.10
2019-03-09T07:02:41.457Z,7.10
2019-03-09T07:04:45.970Z,7.20
2019-03-09T07:06:50.533Z,7.20
2019-03-09T07:08:54.987Z,7.20
2019-03-09T07:10:59.481Z,7.20
2019-03-09T07:13:03.332Z,7.20
2019-03-09T07:15:22.492Z,7.20
2019-03-09T07:17:27.131Z,7.30
2019-03-09T07:19:31.905Z,7.30
2019-03-09T07:21:37.329Z,7.40
2019-03-09T07:23:41.733Z,7.40
2019-03-09T07:25:45.646Z,7.50
2019-03-09T07:28:04.649Z,7.50
2019-03-09T07:30:14.884Z,7.50
2019-03-09T07:32:18.873Z,7.50
2019-03-09T07:34:24.831Z,7.50
2019-03-09T07:36:28.715Z,7.60
2019-03-09T07:38:32.560Z,7.60
2019-03-09T07:40:36.421Z,7.60
2019-03-09T07:42:40.321Z,7.60
2019-03-09T07:44:44.181Z,7.60
2019-03-09T07:46:48.087Z,7.60
2019-03-09T07:48:51.980Z,7.60
2019-03-09T07:50:55.827Z,7.60
2019-03-09T07:52:59.729Z,7.60
2019-03-09T07:55:04.049Z,7.60
2019-03-09T07:57:08.000Z,7.60
2019-03-09T07:59:11.910Z,7.70
2019-03-09T08:01:16.504Z,7.70
2019-03-09T08:03:20.394Z,7.80
2019-03-09T08:05:24.336Z,7.80
2019-03-09T08:07:28.163Z,7.80
2019-03-09T08:09:32.094Z,7.90
2019-03-09T08:11:36.019Z,7.90
2019-03-09T08:13:39.920Z,7.90
2019-03-09T08:15:43.822Z,7.90
2019-03-09T08:17:47.814Z,8.00
2019-03-09T08:19:51.796Z,8.10
2019-03-09T08:21:55.654Z,8.00
2019-03-09T08:23:59.534Z,8.10
2019-03-09T08:26:03.480Z,8.10
2019-03-09T08:28:07.338Z,8.00
2019-03-09T08:30:16.576Z,8.10
2019-03-09T08:32:20.440Z,8.10
2019-03-09T08:34:24.347Z,8.10
2019-03-09T08:36:28.245Z,8.10
2019-03-09T08:38:32.133Z,8.10
2019-03-09T08:40:36.056Z,8.20
2019-03-09T08:42:40.078Z,8.20
2019-03-09T08:44:43.965Z,8.20
2019-03-09T08:46:47.852Z,8.20
2019-03-09T08:48:51.726Z,8.20
2019-03-09T08:50:55.658Z,8.30
2019-03-09T08:52:59.557Z,8.30
2019-03-09T08:55:03.698Z,8.30
2019-03-09T08:57:07.582Z,8.30
2019-03-09T08:59:11.491Z,8.30
2019-03-09T09:01:15.448Z,8.40
2019-03-09T09:03:19.306Z,8.40
2019-03-09T09:05:23.197Z,8.50
2019-03-09T09:07:27.092Z,8.50
2019-03-09T09:09:30.955Z,8.50
2019-03-09T09:11:34.888Z,8.50
2019-03-09T09:13:38.797Z,8.50
2019-03-09T09:15:42.810Z,8.60
2019-03-09T09:17:46.721Z,8.60
2019-03-09T09:19:50.570Z,8.60
2019-03-09T09:21:54.450Z,8.60
2019-03-09T09:23:58.326Z,8.70
2019-03-09T09:26:02.209Z,8.80
2019-03-09T09:28:06.318Z,8.90
2019-03-09T09:30:19.018Z,9.00
2019-03-09T09:32:23.526Z,9.00
2019-03-09T09:34:27.401Z,9.00
2019-03-09T09:36:31.335Z,9.00
2019-03-09T09:38:35.236Z,9.10
2019-03-09T09:40:39.126Z,9.10
2019-03-09T09:42:43.053Z,9.10
2019-03-09T09:44:46.937Z,9.10
2019-03-09T09:46:50.887Z,9.00
2019-03-09T09:48:54.787Z,9.10
2019-03-09T09:50:58.879Z,9.00
2019-03-09T09:53:02.877Z,9.00
2019-03-09T09:55:11.989Z,9.00
2019-03-09T09:57:15.967Z,9.00
2019-03-09T09:59:19.896Z,9.00
2019-03-09T10:01:23.767Z,9.00
2019-03-09T10:03:27.742Z,9.10
2019-03-09T10:05:31.600Z,9.20
2019-03-09T10:07:35.525Z,9.30
2019-03-09T10:09:39.465Z,9.40
2019-03-09T10:11:43.447Z,9.40
2019-03-09T10:13:48.414Z,9.60
2019-03-09T10:15:52.378Z,9.80
2019-03-09T10:17:56.244Z,9.80
2019-03-09T10:20:00.325Z,9.70
2019-03-09T10:22:04.279Z,9.60
2019-03-09T10:24:08.212Z,9.70
2019-03-09T10:26:12.065Z,9.80
2019-03-09T10:28:15.906Z,9.70
2019-03-09T10:30:21.537Z,9.80
2019-03-09T10:32:25.437Z,9.90
2019-03-09T10:34:29.326Z,10.00
2019-03-09T10:36:33.215Z,9.90
2019-03-09T10:38:37.105Z,9.80
2019-03-09T10:40:40.981Z,9.70
2019-03-09T10:42:44.957Z,9.70
2019-03-09T10:44:49.811Z,9.80
2019-03-09T10:46:53.858Z,9.90
2019-03-09T10:48:57.728Z,9.90
2019-03-09T10:51:01.603Z,9.90
2019-03-09T10:53:05.516Z,10.00
2019-03-09T10:55:14.598Z,10.10
2019-03-09T10:57:18.516Z,10.20
2019-03-09T10:59:22.398Z,10.20
2019-03-09T11:01:26.299Z,10.20
2019-03-09T11:03:30.162Z,10.20
2019-03-09T11:05:34.098Z,10.40
2019-03-09T11:07:37.952Z,10.60
2019-03-09T11:09:44.083Z,10.60
2019-03-09T11:11:47.338Z,10.60
2019-03-09T11:13:52.195Z,10.60
2019-03-09T11:15:56.343Z,10.40
2019-03-09T11:18:00.216Z,10.10
2019-03-09T11:20:06.113Z,10.00
2019-03-09T11:22:09.972Z,10.00
2019-03-09T11:24:13.865Z,9.90
2019-03-09T11:26:17.786Z,10.00
2019-03-09T11:28:21.666Z,10.20
2019-03-09T11:30:29.133Z,10.30
2019-03-09T11:32:33.035Z,10.30
2019-03-09T11:34:36.898Z,10.20
2019-03-09T11:36:40.873Z,10.30
2019-03-09T11:38:44.710Z,10.30
2019-03-09T11:40:57.018Z,10.40
2019-03-09T11:42:54.154Z,10.40
2019-03-09T11:44:58.001Z,10.50
2019-03-09T11:47:01.849Z,10.50
2019-03-09T11:49:05.769Z,10.50
2019-03-09T11:51:09.722Z,10.70
2019-03-09T11:53:13.754Z,10.70
2019-03-09T11:55:18.019Z,10.80
2019-03-09T11:57:21.981Z,10.70
2019-03-09T11:59:25.890Z,10.80
2019-03-09T12:01:29.746Z,10.80
2019-03-09T12:03:33.683Z,10.70
2019-03-09T12:05:37.658Z,10.70
2019-03-09T12:07:41.562Z,10.70
2019-03-09T12:09:45.483Z,10.60
2019-03-09T12:11:58.257Z,10.50
2019-03-09T12:14:02.147Z,10.70
2019-03-09T12:16:06.089Z,10.70
2019-03-09T12:18:09.971Z,10.70
2019-03-09T12:20:17.320Z,10.70
2019-03-09T12:22:21.218Z,10.70
2019-03-09T12:24:25.102Z,10.50
2019-03-09T12:26:28.974Z,10.40
2019-03-09T12:28:32.834Z,10.50
2019-03-09T12:30:36.770Z,10.50
2019-03-09T12:32:40.635Z,10.80
2019-03-09T12:34:44.553Z,10.80
2019-03-09T12:36:48.418Z,10.50
2019-03-09T12:38:52.327Z,10.50
2019-03-09T12:40:56.221Z,10.50
2019-03-09T12:43:00.089Z,10.50
2019-03-09T12:45:04.807Z,10.50
2019-03-09T12:47:08.649Z,10.50
2019-03-09T12:49:12.510Z,10.40
2019-03-09T12:51:16.395Z,10.40
2019-03-09T12:53:20.265Z,10.40
2019-03-09T12:55:24.106Z,10.30
2019-03-09T12:57:28.002Z,10.20
2019-03-09T12:59:31.849Z,9.90
2019-03-09T13:01:35.749Z,9.90
2019-03-09T13:03:39.673Z,9.80
2019-03-09T13:05:43.611Z,10.00
2019-03-09T13:07:47.972Z,10.20
2019-03-09T13:09:51.805Z,10.20
2019-03-09T13:11:55.715Z,10.30
2019-03-09T13:13:59.561Z,10.50
2019-03-09T13:16:03.491Z,10.80
2019-03-09T13:18:07.438Z,10.70
2019-03-09T13:20:18.531Z,10.80
2019-03-09T13:22:22.914Z,10.60
2019-03-09T13:24:26.852Z,10.70
2019-03-09T13:26:30.714Z,10.70
2019-03-09T13:28:34.597Z,10.60
2019-03-09T13:30:38.500Z,10.50
2019-03-09T13:32:42.385Z,10.40
2019-03-09T13:34:46.433Z,10.40
2019-03-09T13:36:50.332Z,10.40
2019-03-09T13:38:54.187Z,10.20
2019-03-09T13:40:58.155Z,10.20
2019-03-09T13:43:01.998Z,10.00
2019-03-09T13:45:09.235Z,9.90
2019-03-09T13:47:13.137Z,9.90
2019-03-09T13:49:16.978Z,9.70
2019-03-09T13:51:20.974Z,9.80
2019-03-09T13:53:24.833Z,9.80
2019-03-09T13:55:28.684Z,9.80
2019-03-09T13:57:32.596Z,9.80
2019-03-09T13:59:36.462Z,9.60
2019-03-09T14:01:40.393Z,9.60
2019-03-09T14:03:44.228Z,9.40
2019-03-09T14:05:48.077Z,9.30
2019-03-09T14:07:52.007Z,8.70
2019-03-09T14:09:55.846Z,8.00
2019-03-09T14:11:59.763Z,8.00
2019-03-09T14:14:03.656Z,8.00
2019-03-09T14:16:07.502Z,7.70
2019-03-09T14:18:11.449Z,7.80
2019-03-09T14:20:16.231Z,7.70
2019-03-09T14:22:20.098Z,7.70
2019-03-09T14:24:23.961Z,7.60
2019-03-09T14:26:28.147Z,7.70
2019-03-09T14:28:32.054Z,7.70
2019-03-09T14:30:35.909Z,7.50
2019-03-09T14:32:39.772Z,7.60
2019-03-09T14:34:43.657Z,7.40
2019-03-09T14:36:47.521Z,7.60
2019-03-09T14:38:51.564Z,7.70
2019-03-09T14:40:55.428Z,7.70
2019-03-09T14:42:59.270Z,7.50
2019-03-09T14:45:03.209Z,7.40
2019-03-09T14:47:07.047Z,7.40
2019-03-09T14:49:10.934Z,7.20
2019-03-09T14:51:14.801Z,6.90
2019-03-09T14:53:18.696Z,6.80
2019-03-09T14:55:22.537Z,6.80
2019-03-09T14:57:26.425Z,6.90
2019-03-09T14:59:30.410Z,6.80
2019-03-09T15:01:34.253Z,6.80
2019-03-09T15:03:38.112Z,6.60
2019-03-09T15:05:42.114Z,6.60
2019-03-09T15:07:46.021Z,6.80
2019-03-09T15:09:49.871Z,6.80
2019-03-09T15:11:53.786Z,6.80
2019-03-09T15:13:57.664Z,6.90
2019-03-09T15:16:01.524Z,7.70
2019-03-09T15:18:06.018Z,8.50
2019-03-09T15:20:12.009Z,9.20
2019-03-09T15:22:15.849Z,8.80
2019-03-09T15:24:19.767Z,8.10
2019-03-09T15:26:23.639Z,8.00
2019-03-09T15:28:27.548Z,8.00
2019-03-09T15:30:31.433Z,8.00
2019-03-09T15:32:35.313Z,7.90
2019-03-09T15:34:39.216Z,8.20
2019-03-09T15:36:43.146Z,8.00
2019-03-09T15:38:47.049Z,8.10
2019-03-09T15:40:50.954Z,8.00
2019-03-09T15:42:54.830Z,7.90
2019-03-09T15:44:58.770Z,8.10
2019-03-09T15:47:02.638Z,8.10
2019-03-09T15:49:06.504Z,8.10
2019-03-09T15:51:10.412Z,8.20
2019-03-09T15:53:14.298Z,8.20
2019-03-09T15:55:23.510Z,7.60
2019-03-09T15:57:27.396Z,6.70
2019-03-09T15:59:31.313Z,7.00
2019-03-09T16:01:35.298Z,7.00
2019-03-09T16:03:39.141Z,8.60
2019-03-09T16:05:43.071Z,9.50
2019-03-09T16:07:46.947Z,8.90
2019-03-09T16:09:50.790Z,8.20
2019-03-09T16:11:54.797Z,7.70
2019-03-09T16:13:58.685Z,7.40
2019-03-09T16:16:02.578Z,7.30
2019-03-09T16:18:06.501Z,7.30
2019-03-09T16:20:13.307Z,7.30
2019-03-09T16:22:17.160Z,7.30
2019-03-09T16:24:21.049Z,7.30
2019-03-09T16:26:25.027Z,7.20
2019-03-09T16:28:28.982Z,7.00
2019-03-09T16:30:32.895Z,6.70
2019-03-09T16:32:36.734Z,6.90
2019-03-09T16:34:40.617Z,6.50
2019-03-09T16:36:44.479Z,6.50
2019-03-09T16:38:48.358Z,6.40
2019-03-09T16:40:52.262Z,6.30
2019-03-09T16:42:56.144Z,6.10
2019-03-09T16:45:00.056Z,6.20
2019-03-09T16:47:03.915Z,6.20
2019-03-09T16:49:07.861Z,6.20
2019-03-09T16:51:11.737Z,6.00
2019-03-09T16:53:15.603Z,5.90
2019-03-09T16:55:19.465Z,5.80
2019-03-09T16:57:23.317Z,5.80
2019-03-09T16:59:27.231Z,5.70
2019-03-09T17:01:31.137Z,5.70
2019-03-09T17:03:35.002Z,5.70
2019-03-09T17:05:38.898Z,5.70
2019-03-09T17:07:42.760Z,5.70
2019-03-09T17:09:46.597Z,5.60
2019-03-09T17:11:50.485Z,5.50
2019-03-09T17:13:54.386Z,5.50
2019-03-09T17:15:58.267Z,5.60
2019-03-09T17:18:02.160Z,5.60
2019-03-09T17:20:09.001Z,5.50
2019-03-09T17:22:12.930Z,5.50
2019-03-09T17:24:16.780Z,5.50
2019-03-09T17:26:20.667Z,5.70
2019-03-09T17:28:24.542Z,5.60
2019-03-09T17:30:28.447Z,5.50
2019-03-09T17:32:32.348Z,5.50
2019-03-09T17:34:36.208Z,5.60
2019-03-09T17:36:40.114Z,5.70
2019-03-09T17:38:44.001Z,5.60
2019-03-09T17:40:48.007Z,5.50
2019-03-09T17:42:51.878Z,5.60
2019-03-09T17:44:55.762Z,5.60
2019-03-09T17:46:59.716Z,5.60
2019-03-09T17:49:03.562Z,5.70
2019-03-09T17:51:07.480Z,5.70
2019-03-09T17:53:11.400Z,5.70
2019-03-09T17:55:15.237Z,5.70
2019-03-09T17:57:19.140Z,5.70
2019-03-09T17:59:23.032Z,5.60
2019-03-09T18:01:26.914Z,5.70
2019-03-09T18:03:30.826Z,5.60
2019-03-09T18:05:34.682Z,5.60
2019-03-09T18:07:38.529Z,5.60
2019-03-09T18:09:42.420Z,5.60
2019-03-09T18:11:46.271Z,5.60
2019-03-09T18:13:50.188Z,5.80
2019-03-09T18:15:54.096Z,5.60
2019-03-09T18:17:58.077Z,5.50
2019-03-09T18:20:01.949Z,5.50
2019-03-09T18:22:05.804Z,5.50
2019-03-09T18:24:09.700Z,5.40
2019-03-09T18:26:13.539Z,5.40
2019-03-09T18:28:17.389Z,5.30
2019-03-09T18:30:22.232Z,5.30
2019-03-09T18:32:26.094Z,5.30
2019-03-09T18:34:30.011Z,5.40
2019-03-09T18:36:33.886Z,5.40
2019-03-09T18:38:37.758Z,5.40
2019-03-09T18:40:41.675Z,5.40
2019-03-09T18:42:45.526Z,5.40
2019-03-09T18:44:49.397Z,5.30
2019-03-09T18:46:53.310Z,5.30
2019-03-09T18:48:57.174Z,5.50
2019-03-09T18:51:01.174Z,5.30
2019-03-09T18:53:05.009Z,5.30
2019-03-09T18:55:09.589Z,5.20
2019-03-09T18:57:13.475Z,5.30
2019-03-09T18:59:17.393Z,5.30
2019-03-09T19:01:21.269Z,5.40
2019-03-09T19:08:55.698Z,5.50
2019-03-09T19:10:59.692Z,5.60
2019-03-09T19:13:04.266Z,5.60
2019-03-09T19:15:11.157Z,5.60
2019-03-09T19:17:15.054Z,5.60
2019-03-09T19:19:19.290Z,5.60
2019-03-09T19:21:26.351Z,5.70
2019-03-09T19:23:33.658Z,5.70
2019-03-09T19:25:38.806Z,5.60
2019-03-09T19:27:51.921Z,5.60
2019-03-09T19:30:02.774Z,5.60
2019-03-09T19:32:14.209Z,5.50
2019-03-09T19:34:18.536Z,5.50
2019-03-09T19:36:22.444Z,5.60
2019-03-09T19:38:26.340Z,5.60
2019-03-09T19:40:30.234Z,5.60
2019-03-09T19:42:34.114Z,5.40
2019-03-09T19:44:37.985Z,5.40
2019-03-09T19:46:41.953Z,5.40
2019-03-09T19:48:45.790Z,5.40
2019-03-09T19:50:49.679Z,5.20
2019-03-09T19:52:53.546Z,5.20
2019-03-09T19:54:57.404Z,5.20
2019-03-09T19:57:01.284Z,5.20
2019-03-09T19:59:05.189Z,5.20
2019-03-09T20:01:09.077Z,5.10
2019-03-09T20:03:12.968Z,5.10
2019-03-09T20:05:16.956Z,5.10
2019-03-09T20:07:20.793Z,5.00
2019-03-09T20:09:24.688Z,5.20
2019-03-09T20:11:28.632Z,5.10
2019-03-09T20:13:32.497Z,5.10
2019-03-09T20:15:36.355Z,5.10
2019-03-09T20:17:40.218Z,5.00
2019-03-09T20:19:44.058Z,5.00
2019-03-09T20:21:47.957Z,5.10
2019-03-09T20:23:51.905Z,5.00
2019-03-09T20:25:55.832Z,5.10
2019-03-09T20:27:59.675Z,5.10
2019-03-09T20:30:04.959Z,5.10
2019-03-09T20:32:08.936Z,5.20
2019-03-09T20:34:12.769Z,5.10
2019-03-09T20:36:16.632Z,5.20
2019-03-09T20:38:20.524Z,5.20
2019-03-09T20:40:24.403Z,5.20
2019-03-09T20:42:28.246Z,5.20
2019-03-09T20:44:32.147Z,5.20
2019-03-09T20:46:41.860Z,5.20
2019-03-09T20:48:41.586Z,5.20
2019-03-09T20:50:45.450Z,5.30
2019-03-09T20:52:49.393Z,5.20
2019-03-09T20:54:53.333Z,5.30
2019-03-09T20:56:57.245Z,5.30
2019-03-09T20:59:01.139Z,5.30
2019-03-09T21:01:05.003Z,5.20
2019-03-09T21:03:08.882Z,5.20
2019-03-09T21:05:12.749Z,5.20
2019-03-09T21:07:16.627Z,5.20
2019-03-09T21:09:20.475Z,5.20
2019-03-09T21:11:24.368Z,5.20
2019-03-09T21:13:28.508Z,5.20
2019-03-09T21:15:32.894Z,5.20
2019-03-09T21:17:37.107Z,5.20
2019-03-09T21:19:41.299Z,5.20
2019-03-09T21:21:45.482Z,5.20
2019-03-09T21:23:49.523Z,5.20
2019-03-09T21:25:53.636Z,5.20
2019-03-09T21:27:57.652Z,5.20
2019-03-09T21:30:01.761Z,5.20
2019-03-09T21:32:05.828Z,5.20
2019-03-09T21:34:09.721Z,5.20
2019-03-09T21:36:13.577Z,5.20
2019-03-09T21:38:17.457Z,5.20
2019-03-09T21:40:21.353Z,5.10
2019-03-09T21:42:25.297Z,5.10
2019-03-09T21:44:29.165Z,5.20
2019-03-09T21:46:33.049Z,5.20
2019-03-09T21:48:36.961Z,5.20
2019-03-09T21:50:40.849Z,5.10
2019-03-09T21:52:44.778Z,5.20
2019-03-09T21:54:48.786Z,5.30
2019-03-09T21:56:52.645Z,5.20
2019-03-09T21:58:57.133Z,5.20
2019-03-09T22:01:01.042Z,5.30
2019-03-09T22:03:04.988Z,5.30
2019-03-09T22:05:11.149Z,5.40
2019-03-09T22:07:15.032Z,5.40
2019-03-09T22:09:18.861Z,5.40
2019-03-09T22:11:22.750Z,5.30
2019-03-09T22:13:26.606Z,5.50
2019-03-09T22:15:30.572Z,5.40
2019-03-09T22:17:34.466Z,5.50
2019-03-09T22:19:38.367Z,5.50
2019-03-09T22:21:42.255Z,5.60
2019-03-09T22:23:46.134Z,5.60
2019-03-09T22:25:50.057Z,5.70
2019-03-09T22:27:53.917Z,5.60
2019-03-09T22:29:57.851Z,5.70
2019-03-09T22:32:01.689Z,5.70
2019-03-09T22:34:05.581Z,5.60
2019-03-09T22:36:09.438Z,5.70
2019-03-09T22:38:15.128Z,5.70
2019-03-09T22:40:19.974Z,5.70
2019-03-09T22:42:23.787Z,5.70
2019-03-09T22:44:27.703Z,5.80
2019-03-09T22:46:31.611Z,5.70
2019-03-09T22:48:35.621Z,5.80
2019-03-09T22:50:39.526Z,5.80
2019-03-09T22:52:43.369Z,5.80
2019-03-09T22:54:47.304Z,5.80
2019-03-09T22:56:51.177Z,5.80
2019-03-09T22:58:55.045Z,5.80
2019-03-09T23:00:59.301Z,5.80
2019-03-09T23:03:03.154Z,5.80
2019-03-09T23:05:09.050Z,5.80
2019-03-09T23:07:13.017Z,5.80
2019-03-09T23:09:16.857Z,5.80
2019-03-09T23:11:20.716Z,5.80
2019-03-09T23:13:24.641Z,5.80
2019-03-09T23:15:28.495Z,5.80
2019-03-09T23:17:32.460Z,5.90
2019-03-09T23:19:36.329Z,5.90
2019-03-09T23:21:40.247Z,5.80
2019-03-09T23:23:44.167Z,5.80
2019-03-09T23:25:48.060Z,5.80
2019-03-09T23:27:51.945Z,5.90
2019-03-09T23:29:55.852Z,5.90
2019-03-09T23:31:59.743Z,5.90
2019-03-09T23:34:03.638Z,5.90
2019-03-09T23:36:07.567Z,5.90
2019-03-09T23:38:11.494Z,5.90
2019-03-09T23:40:19.748Z,6.00
2019-03-09T23:42:23.612Z,5.90
2019-03-09T23:44:27.522Z,6.00
2019-03-09T23:46:31.381Z,6.00
2019-03-09T23:48:35.270Z,6.00
2019-03-09T23:50:39.200Z,6.00
2019-03-09T23:52:44.646Z,6.00
2019-03-09T23:54:48.542Z,6.00
2019-03-09T23:56:52.441Z,6.00
2019-03-09T23:58:56.337Z,6.00
